sensor_id;sensor_type;location;lat;lon;timestamp;temperature;humidity
61004;DHT22;46889;37.310;13.582;2023-04-06T14:17:38;18.70;97.50
61004;DHT22;46889;37.310;13.582;2023-04-06T14:20:09;18.50;97.80
61004;DHT22;46889;37.310;13.582;2023-04-06T14:22:42;18.20;98.00
61004;DHT22;46889;37.310;13.582;2023-04-06T14:25:08;18.40;98.30
61004;DHT22;46889;37.310;13.582;2023-04-06T14:27:35;18.30;98.30
61004;DHT22;46889;37.310;13.582;2023-04-06T14:30:01;18.20;98.50
61004;DHT22;46889;37.310;13.582;2023-04-06T14:32:27;18.40;98.20
61004;DHT22;46889;37.310;13.582;2023-04-06T14:34:54;18.20;98.30
61004;DHT22;46889;37.310;13.582;2023-04-06T14:37:20;18.40;98.20
61004;DHT22;46889;37.310;13.582;2023-04-06T14:39:48;18.20;98.20
61004;DHT22;46889;37.310;13.582;2023-04-06T14:42:14;17.80;98.00
61004;DHT22;46889;37.310;13.582;2023-04-06T14:44:41;18.00;98.20
61004;DHT22;46889;37.310;13.582;2023-04-06T14:47:10;18.10;97.60
61004;DHT22;46889;37.310;13.582;2023-04-06T14:49:36;18.00;97.30
61004;DHT22;46889;37.310;13.582;2023-04-06T14:52:02;18.20;97.70
61004;DHT22;46889;37.310;13.582;2023-04-06T14:54:29;18.50;97.80
61004;DHT22;46889;37.310;13.582;2023-04-06T14:56:55;18.30;97.60
61004;DHT22;46889;37.310;13.582;2023-04-06T14:59:22;18.20;97.60
61004;DHT22;46889;37.310;13.582;2023-04-06T15:01:49;18.30;97.60
61004;DHT22;46889;37.310;13.582;2023-04-06T15:04:15;17.90;98.00
61004;DHT22;46889;37.310;13.582;2023-04-06T15:06:42;17.90;97.00
61004;DHT22;46889;37.310;13.582;2023-04-06T15:09:09;17.50;96.90
61004;DHT22;46889;37.310;13.582;2023-04-06T15:11:36;17.30;99.00
61004;DHT22;46889;37.310;13.582;2023-04-06T15:14:02;17.10;99.90
61004;DHT22;46889;37.310;13.582;2023-04-06T15:16:28;16.90;99.90
61004;DHT22;46889;37.310;13.582;2023-04-06T15:18:58;16.90;99.90
61004;DHT22;46889;37.310;13.582;2023-04-06T15:21:24;17.00;99.90
61004;DHT22;46889;37.310;13.582;2023-04-06T15:23:52;17.20;99.90
61004;DHT22;46889;37.310;13.582;2023-04-06T15:26:19;17.00;99.90
61004;DHT22;46889;37.310;13.582;2023-04-06T15:28:46;16.60;99.90
61004;DHT22;46889;37.310;13.582;2023-04-06T15:31:16;16.40;99.90
61004;DHT22;46889;37.310;13.582;2023-04-06T15:33:42;16.60;99.90
61004;DHT22;46889;37.310;13.582;2023-04-06T15:36:23;16.70;99.90
61004;DHT22;46889;37.310;13.582;2023-04-06T15:38:50;16.40;99.90
61004;DHT22;46889;37.310;13.582;2023-04-06T15:41:16;16.30;99.90
61004;DHT22;46889;37.310;13.582;2023-04-06T15:43:44;16.10;99.90
61004;DHT22;46889;37.310;13.582;2023-04-06T15:46:11;15.90;99.90
61004;DHT22;46889;37.310;13.582;2023-04-06T15:48:37;15.80;99.90
61004;DHT22;46889;37.310;13.582;2023-04-06T15:51:03;15.90;99.90
61004;DHT22;46889;37.310;13.582;2023-04-06T15:53:29;16.30;99.90
61004;DHT22;46889;37.310;13.582;2023-04-06T15:56:02;16.40;99.90
61004;DHT22;46889;37.310;13.582;2023-04-06T15:58:29;16.50;99.90
61004;DHT22;46889;37.310;13.582;2023-04-06T16:00:57;16.30;99.90
61004;DHT22;46889;37.310;13.582;2023-04-06T16:03:23;15.70;99.90
61004;DHT22;46889;37.310;13.582;2023-04-06T16:05:49;15.70;99.90
61004;DHT22;46889;37.310;13.582;2023-04-06T16:08:15;15.80;99.90
61004;DHT22;46889;37.310;13.582;2023-04-06T16:10:44;15.80;99.90
61004;DHT22;46889;37.310;13.582;2023-04-06T16:13:11;15.80;99.90
61004;DHT22;46889;37.310;13.582;2023-04-06T16:15:37;15.40;99.90
61004;DHT22;46889;37.310;13.582;2023-04-06T16:18:03;15.20;99.90
61004;DHT22;46889;37.310;13.582;2023-04-06T16:20:29;15.50;99.90
61004;DHT22;46889;37.310;13.582;2023-04-06T16:22:56;15.50;99.90
61004;DHT22;46889;37.310;13.582;2023-04-06T16:25:22;15.40;99.90
61004;DHT22;46889;37.310;13.582;2023-04-06T16:27:48;15.50;99.90
61004;DHT22;46889;37.310;13.582;2023-04-06T16:30:15;15.10;99.90
61004;DHT22;46889;37.310;13.582;2023-04-06T16:32:41;15.20;99.90
61004;DHT22;46889;37.310;13.582;2023-04-06T16:35:08;14.70;99.90
61004;DHT22;46889;37.310;13.582;2023-04-06T16:37:34;14.70;99.90
61004;DHT22;46889;37.310;13.582;2023-04-06T16:40:00;14.80;99.90
61004;DHT22;46889;37.310;13.582;2023-04-06T16:42:27;14.60;99.90
61004;DHT22;46889;37.310;13.582;2023-04-06T16:44:53;14.70;99.90
61004;DHT22;46889;37.310;13.582;2023-04-06T16:47:19;14.50;99.90
61004;DHT22;46889;37.310;13.582;2023-04-06T16:49:45;14.20;99.90
61004;DHT22;46889;37.310;13.582;2023-04-06T16:52:11;14.20;99.90
61004;DHT22;46889;37.310;13.582;2023-04-06T16:54:37;14.00;99.90
61004;DHT22;46889;37.310;13.582;2023-04-06T16:57:03;14.00;99.90
61004;DHT22;46889;37.310;13.582;2023-04-06T16:59:29;14.00;99.90
61004;DHT22;46889;37.310;13.582;2023-04-06T17:01:56;14.10;99.90
61004;DHT22;46889;37.310;13.582;2023-04-06T17:04:22;14.00;99.90
61004;DHT22;46889;37.310;13.582;2023-04-06T17:06:49;13.70;99.90
61004;DHT22;46889;37.310;13.582;2023-04-06T17:09:15;13.80;99.90
61004;DHT22;46889;37.310;13.582;2023-04-06T17:11:41;13.80;99.90
61004;DHT22;46889;37.310;13.582;2023-04-06T17:14:08;13.90;99.90
61004;DHT22;46889;37.310;13.582;2023-04-06T17:16:34;13.90;99.90
61004;DHT22;46889;37.310;13.582;2023-04-06T17:19:01;13.80;99.90
61004;DHT22;46889;37.310;13.582;2023-04-06T17:21:27;13.50;99.90
61004;DHT22;46889;37.310;13.582;2023-04-06T17:23:53;13.50;99.90
61004;DHT22;46889;37.310;13.582;2023-04-06T17:26:19;13.30;99.90
61004;DHT22;46889;37.310;13.582;2023-04-06T17:28:46;13.20;99.90
61004;DHT22;46889;37.310;13.582;2023-04-06T17:31:13;12.90;99.90
61004;DHT22;46889;37.310;13.582;2023-04-06T17:33:39;12.80;99.90
61004;DHT22;46889;37.310;13.582;2023-04-06T17:36:07;12.70;99.90
61004;DHT22;46889;37.310;13.582;2023-04-06T17:38:35;12.70;99.90
61004;DHT22;46889;37.310;13.582;2023-04-06T17:41:01;12.50;99.90
61004;DHT22;46889;37.310;13.582;2023-04-06T17:43:32;12.60;99.90
61004;DHT22;46889;37.310;13.582;2023-04-06T17:45:58;12.30;99.90
61004;DHT22;46889;37.310;13.582;2023-04-06T17:48:27;12.30;99.90
61004;DHT22;46889;37.310;13.582;2023-04-06T17:50:56;12.40;99.90
61004;DHT22;46889;37.310;13.582;2023-04-06T17:53:22;12.50;99.90
61004;DHT22;46889;37.310;13.582;2023-04-06T17:55:49;12.50;99.90
61004;DHT22;46889;37.310;13.582;2023-04-06T17:58:15;12.30;99.90
61004;DHT22;46889;37.310;13.582;2023-04-06T18:00:42;12.20;99.90
61004;DHT22;46889;37.310;13.582;2023-04-06T18:03:08;12.20;99.90
61004;DHT22;46889;37.310;13.582;2023-04-06T18:05:34;12.10;99.90
61004;DHT22;46889;37.310;13.582;2023-04-06T18:08:00;12.10;99.90
61004;DHT22;46889;37.310;13.582;2023-04-06T18:10:26;12.10;99.90
61004;DHT22;46889;37.310;13.582;2023-04-06T18:12:52;12.10;99.90
61004;DHT22;46889;37.310;13.582;2023-04-06T18:15:18;12.20;99.90
61004;DHT22;46889;37.310;13.582;2023-04-06T18:17:45;12.00;99.90
61004;DHT22;46889;37.310;13.582;2023-04-06T18:20:11;12.00;99.90
61004;DHT22;46889;37.310;13.582;2023-04-06T18:22:37;12.00;99.90
61004;DHT22;46889;37.310;13.582;2023-04-06T18:25:04;12.10;99.90
61004;DHT22;46889;37.310;13.582;2023-04-06T18:27:32;12.00;99.90
61004;DHT22;46889;37.310;13.582;2023-04-06T18:29:58;12.00;99.90
61004;DHT22;46889;37.310;13.582;2023-04-06T18:32:26;12.00;99.90
61004;DHT22;46889;37.310;13.582;2023-04-06T18:34:56;12.10;99.90
61004;DHT22;46889;37.310;13.582;2023-04-06T18:37:23;12.00;99.90
61004;DHT22;46889;37.310;13.582;2023-04-06T18:39:51;12.10;99.90
61004;DHT22;46889;37.310;13.582;2023-04-06T18:42:18;12.10;99.90
61004;DHT22;46889;37.310;13.582;2023-04-06T18:44:45;12.10;99.90
61004;DHT22;46889;37.310;13.582;2023-04-06T18:47:11;12.10;99.90
61004;DHT22;46889;37.310;13.582;2023-04-06T18:49:37;12.00;99.90
61004;DHT22;46889;37.310;13.582;2023-04-06T18:52:06;11.80;99.90
61004;DHT22;46889;37.310;13.582;2023-04-06T18:54:33;11.90;99.90
61004;DHT22;46889;37.310;13.582;2023-04-06T18:56:59;11.80;99.90
61004;DHT22;46889;37.310;13.582;2023-04-06T18:59:26;11.80;99.90
61004;DHT22;46889;37.310;13.582;2023-04-06T19:01:55;11.70;99.90
61004;DHT22;46889;37.310;13.582;2023-04-06T19:04:21;11.70;99.90
61004;DHT22;46889;37.310;13.582;2023-04-06T19:06:47;11.70;99.90
61004;DHT22;46889;37.310;13.582;2023-04-06T19:09:13;11.50;99.90
61004;DHT22;46889;37.310;13.582;2023-04-06T19:11:39;11.50;99.90
61004;DHT22;46889;37.310;13.582;2023-04-06T19:14:05;11.50;99.90
61004;DHT22;46889;37.310;13.582;2023-04-06T19:16:32;11.50;99.90
61004;DHT22;46889;37.310;13.582;2023-04-06T19:19:00;11.50;99.90
61004;DHT22;46889;37.310;13.582;2023-04-06T19:21:26;11.60;99.90
61004;DHT22;46889;37.310;13.582;2023-04-06T19:23:53;11.60;99.90
61004;DHT22;46889;37.310;13.582;2023-04-06T19:26:20;11.40;99.90
61004;DHT22;46889;37.310;13.582;2023-04-06T19:28:47;11.50;99.90
61004;DHT22;46889;37.310;13.582;2023-04-06T19:31:15;11.50;99.90
61004;DHT22;46889;37.310;13.582;2023-04-06T19:33:43;11.50;99.90
61004;DHT22;46889;37.310;13.582;2023-04-06T19:36:09;11.40;99.90
61004;DHT22;46889;37.310;13.582;2023-04-06T19:38:36;11.30;99.90
61004;DHT22;46889;37.310;13.582;2023-04-06T19:41:02;11.20;99.90
61004;DHT22;46889;37.310;13.582;2023-04-06T19:43:28;11.10;99.90
61004;DHT22;46889;37.310;13.582;2023-04-06T19:45:54;11.10;99.90
61004;DHT22;46889;37.310;13.582;2023-04-06T19:48:22;11.10;99.90
61004;DHT22;46889;37.310;13.582;2023-04-06T19:50:49;11.10;99.90
61004;DHT22;46889;37.310;13.582;2023-04-06T19:53:17;11.00;99.90
61004;DHT22;46889;37.310;13.582;2023-04-06T19:55:43;11.00;99.90
61004;DHT22;46889;37.310;13.582;2023-04-06T19:58:09;11.00;99.90
61004;DHT22;46889;37.310;13.582;2023-04-06T20:00:35;11.00;99.90
61004;DHT22;46889;37.310;13.582;2023-04-06T20:03:01;11.00;99.90
61004;DHT22;46889;37.310;13.582;2023-04-06T20:05:27;10.70;99.90
61004;DHT22;46889;37.310;13.582;2023-04-06T20:07:53;10.60;99.90
61004;DHT22;46889;37.310;13.582;2023-04-06T20:10:19;10.50;99.90
61004;DHT22;46889;37.310;13.582;2023-04-06T20:12:46;10.60;99.90
61004;DHT22;46889;37.310;13.582;2023-04-06T20:15:14;10.60;99.90
61004;DHT22;46889;37.310;13.582;2023-04-06T20:17:42;10.60;99.90
61004;DHT22;46889;37.310;13.582;2023-04-06T20:20:09;10.60;99.90
61004;DHT22;46889;37.310;13.582;2023-04-06T20:22:36;10.60;99.90
61004;DHT22;46889;37.310;13.582;2023-04-06T20:25:03;10.60;99.90
61004;DHT22;46889;37.310;13.582;2023-04-06T20:27:29;10.50;99.90
61004;DHT22;46889;37.310;13.582;2023-04-06T20:29:55;10.60;99.90
61004;DHT22;46889;37.310;13.582;2023-04-06T20:32:21;10.50;99.90
61004;DHT22;46889;37.310;13.582;2023-04-06T20:34:48;10.60;99.90
61004;DHT22;46889;37.310;13.582;2023-04-06T20:37:14;10.50;99.90
61004;DHT22;46889;37.310;13.582;2023-04-06T20:39:41;10.50;99.90
61004;DHT22;46889;37.310;13.582;2023-04-06T20:42:07;10.40;99.90
61004;DHT22;46889;37.310;13.582;2023-04-06T20:44:33;10.30;99.90
61004;DHT22;46889;37.310;13.582;2023-04-06T20:47:01;10.30;99.90
61004;DHT22;46889;37.310;13.582;2023-04-06T20:49:28;10.20;99.90
61004;DHT22;46889;37.310;13.582;2023-04-06T20:51:54;10.10;99.90
61004;DHT22;46889;37.310;13.582;2023-04-06T20:54:20;10.20;99.90
61004;DHT22;46889;37.310;13.582;2023-04-06T20:56:46;10.10;99.90
61004;DHT22;46889;37.310;13.582;2023-04-06T20:59:12;10.20;99.90
61004;DHT22;46889;37.310;13.582;2023-04-06T21:01:39;10.30;99.90
61004;DHT22;46889;37.310;13.582;2023-04-06T21:04:05;10.30;99.90
61004;DHT22;46889;37.310;13.582;2023-04-06T21:06:31;10.30;99.90
61004;DHT22;46889;37.310;13.582;2023-04-06T21:08:59;10.30;99.90
61004;DHT22;46889;37.310;13.582;2023-04-06T21:11:25;10.10;99.90
61004;DHT22;46889;37.310;13.582;2023-04-06T21:13:51;10.10;99.90
61004;DHT22;46889;37.310;13.582;2023-04-06T21:16:18;10.00;99.90
61004;DHT22;46889;37.310;13.582;2023-04-06T21:18:44;10.00;99.90
61004;DHT22;46889;37.310;13.582;2023-04-06T21:21:10;10.00;99.90
61004;DHT22;46889;37.310;13.582;2023-04-06T21:23:36;10.00;99.90
61004;DHT22;46889;37.310;13.582;2023-04-06T21:26:02;10.00;99.90
61004;DHT22;46889;37.310;13.582;2023-04-06T21:28:28;9.90;99.90
61004;DHT22;46889;37.310;13.582;2023-04-06T21:30:54;9.90;99.90
61004;DHT22;46889;37.310;13.582;2023-04-06T21:33:21;9.80;99.90
61004;DHT22;46889;37.310;13.582;2023-04-06T21:35:47;9.70;99.90
61004;DHT22;46889;37.310;13.582;2023-04-06T21:38:13;9.80;99.90
61004;DHT22;46889;37.310;13.582;2023-04-06T21:40:39;9.80;99.90
61004;DHT22;46889;37.310;13.582;2023-04-06T21:43:05;9.70;99.90
61004;DHT22;46889;37.310;13.582;2023-04-06T21:45:31;9.80;99.90
61004;DHT22;46889;37.310;13.582;2023-04-06T21:47:58;9.80;99.90
61004;DHT22;46889;37.310;13.582;2023-04-06T21:50:24;9.90;99.90
61004;DHT22;46889;37.310;13.582;2023-04-06T21:52:50;9.90;99.90
61004;DHT22;46889;37.310;13.582;2023-04-06T21:55:16;9.90;99.90
61004;DHT22;46889;37.310;13.582;2023-04-06T21:57:42;9.80;99.90
61004;DHT22;46889;37.310;13.582;2023-04-06T22:00:09;9.70;99.90
61004;DHT22;46889;37.310;13.582;2023-04-06T22:02:36;9.80;99.90
61004;DHT22;46889;37.310;13.582;2023-04-06T22:05:03;9.80;99.90
61004;DHT22;46889;37.310;13.582;2023-04-06T22:07:30;9.80;99.90
61004;DHT22;46889;37.310;13.582;2023-04-06T22:09:56;9.70;99.90
61004;DHT22;46889;37.310;13.582;2023-04-06T22:12:23;9.60;99.90
61004;DHT22;46889;37.310;13.582;2023-04-06T22:14:49;9.70;99.90
61004;DHT22;46889;37.310;13.582;2023-04-06T22:17:18;9.70;99.90
61004;DHT22;46889;37.310;13.582;2023-04-06T22:19:46;9.70;99.90
61004;DHT22;46889;37.310;13.582;2023-04-06T22:22:12;9.60;99.90
61004;DHT22;46889;37.310;13.582;2023-04-06T22:24:38;9.70;99.90
61004;DHT22;46889;37.310;13.582;2023-04-06T22:27:04;9.70;99.90
61004;DHT22;46889;37.310;13.582;2023-04-06T22:29:31;9.60;99.90
61004;DHT22;46889;37.310;13.582;2023-04-06T22:31:57;9.60;99.90
61004;DHT22;46889;37.310;13.582;2023-04-06T22:34:23;9.60;99.90
61004;DHT22;46889;37.310;13.582;2023-04-06T22:36:49;9.60;99.90
61004;DHT22;46889;37.310;13.582;2023-04-06T22:39:15;9.70;99.90
61004;DHT22;46889;37.310;13.582;2023-04-06T22:41:41;9.80;99.90
61004;DHT22;46889;37.310;13.582;2023-04-06T22:44:07;9.90;99.90
61004;DHT22;46889;37.310;13.582;2023-04-06T22:46:33;9.80;99.90
61004;DHT22;46889;37.310;13.582;2023-04-06T22:49:00;9.80;99.90
61004;DHT22;46889;37.310;13.582;2023-04-06T22:51:26;9.90;99.90
61004;DHT22;46889;37.310;13.582;2023-04-06T22:53:53;9.90;99.90
61004;DHT22;46889;37.310;13.582;2023-04-06T22:56:19;9.90;99.90
61004;DHT22;46889;37.310;13.582;2023-04-06T22:58:46;9.90;99.90
61004;DHT22;46889;37.310;13.582;2023-04-06T23:01:12;9.90;99.90
61004;DHT22;46889;37.310;13.582;2023-04-06T23:03:38;9.80;99.90
61004;DHT22;46889;37.310;13.582;2023-04-06T23:06:04;9.70;99.90
61004;DHT22;46889;37.310;13.582;2023-04-06T23:08:32;9.80;99.90
61004;DHT22;46889;37.310;13.582;2023-04-06T23:10:58;9.80;99.90
61004;DHT22;46889;37.310;13.582;2023-04-06T23:13:24;9.80;99.90
61004;DHT22;46889;37.310;13.582;2023-04-06T23:15:50;9.70;99.90
61004;DHT22;46889;37.310;13.582;2023-04-06T23:18:16;9.50;99.90
61004;DHT22;46889;37.310;13.582;2023-04-06T23:20:43;9.60;99.90
61004;DHT22;46889;37.310;13.582;2023-04-06T23:23:09;9.60;99.90
61004;DHT22;46889;37.310;13.582;2023-04-06T23:25:35;9.60;99.90
61004;DHT22;46889;37.310;13.582;2023-04-06T23:28:03;9.40;99.90
61004;DHT22;46889;37.310;13.582;2023-04-06T23:30:29;9.40;99.90
61004;DHT22;46889;37.310;13.582;2023-04-06T23:32:55;9.40;99.90
61004;DHT22;46889;37.310;13.582;2023-04-06T23:35:21;9.30;99.90
61004;DHT22;46889;37.310;13.582;2023-04-06T23:37:47;9.10;99.90
61004;DHT22;46889;37.310;13.582;2023-04-06T23:40:14;8.90;99.90
61004;DHT22;46889;37.310;13.582;2023-04-06T23:42:41;9.00;99.90
61004;DHT22;46889;37.310;13.582;2023-04-06T23:45:07;9.20;99.90
61004;DHT22;46889;37.310;13.582;2023-04-06T23:47:33;9.30;99.90
61004;DHT22;46889;37.310;13.582;2023-04-06T23:50:00;9.40;99.90
61004;DHT22;46889;37.310;13.582;2023-04-06T23:52:26;9.40;99.90
61004;DHT22;46889;37.310;13.582;2023-04-06T23:54:54;9.40;99.90
61004;DHT22;46889;37.310;13.582;2023-04-06T23:57:20;9.40;99.90
61004;DHT22;46889;37.310;13.582;2023-04-06T23:59:46;9.30;99.90
